sensor_id;sensor_type;location;lat;lon;timestamp;pressure;altitude;pressure_sealevel;temperature;humidity
9261;BME280;4667;42.726;23.252;2023-08-30T00:00:59;94332.03;;;21.25;62.16
9261;BME280;4667;42.726;23.252;2023-08-30T00:03:25;94325.47;;;21.10;62.54
9261;BME280;4667;42.726;23.252;2023-08-30T00:05:52;94319.28;;;20.97;62.00
9261;BME280;4667;42.726;23.252;2023-08-30T00:08:20;94312.47;;;20.88;61.98
9261;BME280;4667;42.726;23.252;2023-08-30T00:10:48;94300.66;;;20.89;61.38
9261;BME280;4667;42.726;23.252;2023-08-30T00:13:15;94301.44;;;20.89;60.91
9261;BME280;4667;42.726;23.252;2023-08-30T00:15:41;94302.56;;;20.88;61.14
9261;BME280;4667;42.726;23.252;2023-08-30T00:18:08;94316.84;;;20.92;60.39
9261;BME280;4667;42.726;23.252;2023-08-30T00:20:35;94326.44;;;20.81;60.44
9261;BME280;4667;42.726;23.252;2023-08-30T00:23:02;94314.72;;;20.73;60.34
9261;BME280;4667;42.726;23.252;2023-08-30T00:25:31;94323.09;;;20.84;60.24
9261;BME280;4667;42.726;23.252;2023-08-30T00:27:58;94322.63;;;20.82;60.38
9261;BME280;4667;42.726;23.252;2023-08-30T00:30:24;94317.97;;;20.79;60.40
9261;BME280;4667;42.726;23.252;2023-08-30T00:32:51;94305.91;;;20.73;59.73
9261;BME280;4667;42.726;23.252;2023-08-30T00:35:18;94312.91;;;20.65;59.49
9261;BME280;4667;42.726;23.252;2023-08-30T00:37:45;94314.03;;;20.76;59.87
9261;BME280;4667;42.726;23.252;2023-08-30T00:40:11;94311.91;;;20.70;59.69
9261;BME280;4667;42.726;23.252;2023-08-30T00:42:40;94302.09;;;20.74;59.69
9261;BME280;4667;42.726;23.252;2023-08-30T00:45:07;94303.19;;;20.61;59.49
9261;BME280;4667;42.726;23.252;2023-08-30T00:47:34;94304.66;;;20.58;59.34
9261;BME280;4667;42.726;23.252;2023-08-30T00:50:01;94313.00;;;20.57;58.90
9261;BME280;4667;42.726;23.252;2023-08-30T00:52:28;94323.50;;;20.62;58.74
9261;BME280;4667;42.726;23.252;2023-08-30T00:54:55;94304.22;;;20.35;58.52
9261;BME280;4667;42.726;23.252;2023-08-30T00:57:22;94342.28;;;20.41;58.73
9261;BME280;4667;42.726;23.252;2023-08-30T00:59:51;94334.16;;;20.37;58.83
9261;BME280;4667;42.726;23.252;2023-08-30T01:02:19;94336.56;;;20.30;59.20
9261;BME280;4667;42.726;23.252;2023-08-30T01:04:46;94330.78;;;20.28;59.33
9261;BME280;4667;42.726;23.252;2023-08-30T01:07:13;94317.97;;;20.34;59.10
9261;BME280;4667;42.726;23.252;2023-08-30T01:09:40;94325.50;;;20.32;58.98
9261;BME280;4667;42.726;23.252;2023-08-30T01:12:10;94316.09;;;20.13;59.30
9261;BME280;4667;42.726;23.252;2023-08-30T01:14:44;94332.38;;;20.08;59.37
9261;BME280;4667;42.726;23.252;2023-08-30T01:17:14;94328.31;;;20.23;59.08
9261;BME280;4667;42.726;23.252;2023-08-30T01:19:48;94343.13;;;20.20;59.03
9261;BME280;4667;42.726;23.252;2023-08-30T01:22:21;94290.94;;;19.93;58.66
9261;BME280;4667;42.726;23.252;2023-08-30T01:25:09;94330.41;;;20.17;58.96
9261;BME280;4667;42.726;23.252;2023-08-30T01:27:40;94346.13;;;20.19;59.22
9261;BME280;4667;42.726;23.252;2023-08-30T01:30:09;94342.47;;;20.23;59.26
9261;BME280;4667;42.726;23.252;2023-08-30T01:32:37;94340.00;;;20.18;59.55
9261;BME280;4667;42.726;23.252;2023-08-30T01:35:06;94331.75;;;20.23;59.24
9261;BME280;4667;42.726;23.252;2023-08-30T01:37:35;94326.41;;;20.23;59.22
9261;BME280;4667;42.726;23.252;2023-08-30T01:40:04;94321.25;;;20.18;59.52
9261;BME280;4667;42.726;23.252;2023-08-30T01:42:31;94321.91;;;20.15;59.95
9261;BME280;4667;42.726;23.252;2023-08-30T01:45:01;94302.38;;;20.15;59.55
9261;BME280;4667;42.726;23.252;2023-08-30T01:47:29;94314.19;;;20.02;60.35
9261;BME280;4667;42.726;23.252;2023-08-30T01:49:57;94321.66;;;20.08;59.98
9261;BME280;4667;42.726;23.252;2023-08-30T01:52:24;94317.16;;;20.00;59.92
9261;BME280;4667;42.726;23.252;2023-08-30T01:54:51;94330.28;;;20.14;59.68
9261;BME280;4667;42.726;23.252;2023-08-30T01:57:19;94231.56;;;19.58;59.45
9261;BME280;4667;42.726;23.252;2023-08-30T01:59:45;94341.50;;;20.40;59.43
9261;BME280;4667;42.726;23.252;2023-08-30T02:02:13;94323.06;;;20.47;59.47
9261;BME280;4667;42.726;23.252;2023-08-30T02:04:40;94332.47;;;20.45;60.02
9261;BME280;4667;42.726;23.252;2023-08-30T02:07:11;94338.50;;;20.42;59.91
9261;BME280;4667;42.726;23.252;2023-08-30T02:09:44;94336.69;;;20.34;60.17
9261;BME280;4667;42.726;23.252;2023-08-30T02:12:16;94340.63;;;20.15;61.13
9261;BME280;4667;42.726;23.252;2023-08-30T02:14:45;94344.94;;;20.29;61.42
9261;BME280;4667;42.726;23.252;2023-08-30T02:17:14;94288.16;;;19.69;62.46
9261;BME280;4667;42.726;23.252;2023-08-30T02:19:41;94341.91;;;19.97;63.04
9261;BME280;4667;42.726;23.252;2023-08-30T02:22:09;94339.44;;;19.92;63.28
9261;BME280;4667;42.726;23.252;2023-08-30T02:24:35;94316.34;;;19.66;63.91
9261;BME280;4667;42.726;23.252;2023-08-30T02:27:03;94329.00;;;19.78;63.86
9261;BME280;4667;42.726;23.252;2023-08-30T02:29:30;94336.22;;;19.57;64.54
9261;BME280;4667;42.726;23.252;2023-08-30T02:31:56;94337.94;;;19.61;64.39
9261;BME280;4667;42.726;23.252;2023-08-30T02:34:24;94331.09;;;19.43;64.80
9261;BME280;4667;42.726;23.252;2023-08-30T02:36:51;94321.50;;;19.42;64.84
9261;BME280;4667;42.726;23.252;2023-08-30T02:39:18;94330.88;;;19.27;65.22
9261;BME280;4667;42.726;23.252;2023-08-30T02:41:44;94319.41;;;19.27;65.44
9261;BME280;4667;42.726;23.252;2023-08-30T02:44:11;94321.56;;;19.33;65.22
9261;BME280;4667;42.726;23.252;2023-08-30T02:46:38;94321.91;;;19.32;65.11
9261;BME280;4667;42.726;23.252;2023-08-30T02:49:06;94255.66;;;18.87;65.18
9261;BME280;4667;42.726;23.252;2023-08-30T02:51:36;94321.25;;;19.35;64.68
9261;BME280;4667;42.726;23.252;2023-08-30T02:54:03;94315.03;;;19.22;64.54
9261;BME280;4667;42.726;23.252;2023-08-30T02:56:29;94312.63;;;19.29;64.11
9261;BME280;4667;42.726;23.252;2023-08-30T02:58:56;94313.88;;;19.32;63.82
9261;BME280;4667;42.726;23.252;2023-08-30T03:01:23;94302.25;;;19.28;62.96
9261;BME280;4667;42.726;23.252;2023-08-30T03:03:49;94305.66;;;19.37;61.19
9261;BME280;4667;42.726;23.252;2023-08-30T03:06:16;94300.06;;;19.30;61.02
9261;BME280;4667;42.726;23.252;2023-08-30T03:08:44;94321.78;;;19.49;60.53
9261;BME280;4667;42.726;23.252;2023-08-30T03:11:12;94326.03;;;19.50;60.34
9261;BME280;4667;42.726;23.252;2023-08-30T03:13:39;94315.19;;;19.46;59.82
9261;BME280;4667;42.726;23.252;2023-08-30T03:16:10;94331.06;;;19.52;59.69
9261;BME280;4667;42.726;23.252;2023-08-30T03:18:38;94326.63;;;19.56;58.71
9261;BME280;4667;42.726;23.252;2023-08-30T03:21:04;94322.38;;;19.55;58.39
9261;BME280;4667;42.726;23.252;2023-08-30T03:23:32;94295.03;;;19.49;58.48
9261;BME280;4667;42.726;23.252;2023-08-30T03:26:06;94307.34;;;19.71;58.11
9261;BME280;4667;42.726;23.252;2023-08-30T03:28:36;94294.22;;;19.78;58.16
9261;BME280;4667;42.726;23.252;2023-08-30T03:31:11;94301.47;;;19.78;58.08
9261;BME280;4667;42.726;23.252;2023-08-30T03:33:38;94290.59;;;19.95;57.47
9261;BME280;4667;42.726;23.252;2023-08-30T03:36:06;94290.03;;;19.89;57.71
9261;BME280;4667;42.726;23.252;2023-08-30T03:38:33;94291.91;;;19.89;58.05
9261;BME280;4667;42.726;23.252;2023-08-30T03:41:02;94298.31;;;19.96;57.73
9261;BME280;4667;42.726;23.252;2023-08-30T03:43:28;94305.53;;;19.96;57.73
9261;BME280;4667;42.726;23.252;2023-08-30T03:45:55;94295.94;;;19.95;57.73
9261;BME280;4667;42.726;23.252;2023-08-30T03:48:22;94291.50;;;19.99;57.73
9261;BME280;4667;42.726;23.252;2023-08-30T03:50:49;94297.72;;;19.91;57.91
9261;BME280;4667;42.726;23.252;2023-08-30T03:53:15;94295.63;;;19.76;58.13
9261;BME280;4667;42.726;23.252;2023-08-30T03:55:42;94313.19;;;19.85;58.12
9261;BME280;4667;42.726;23.252;2023-08-30T03:58:10;94321.69;;;19.87;57.95
9261;BME280;4667;42.726;23.252;2023-08-30T04:00:37;94331.63;;;19.87;57.81
9261;BME280;4667;42.726;23.252;2023-08-30T04:03:04;94337.81;;;19.79;58.27
9261;BME280;4667;42.726;23.252;2023-08-30T04:05:32;94327.25;;;19.82;58.13
9261;BME280;4667;42.726;23.252;2023-08-30T04:08:01;94315.25;;;20.00;57.69
9261;BME280;4667;42.726;23.252;2023-08-30T04:10:28;94314.34;;;20.17;56.72
9261;BME280;4667;42.726;23.252;2023-08-30T04:12:55;94306.00;;;20.31;57.35
9261;BME280;4667;42.726;23.252;2023-08-30T04:15:23;94318.97;;;20.41;57.42
9261;BME280;4667;42.726;23.252;2023-08-30T04:17:50;94326.00;;;20.46;57.83
9261;BME280;4667;42.726;23.252;2023-08-30T04:20:17;94338.59;;;20.66;56.72
9261;BME280;4667;42.726;23.252;2023-08-30T04:22:44;94332.03;;;20.88;55.30
9261;BME280;4667;42.726;23.252;2023-08-30T04:25:11;94347.13;;;21.17;54.94
9261;BME280;4667;42.726;23.252;2023-08-30T04:27:37;94356.53;;;21.36;53.92
9261;BME280;4667;42.726;23.252;2023-08-30T04:30:05;94366.47;;;21.47;54.26
9261;BME280;4667;42.726;23.252;2023-08-30T04:32:33;94389.59;;;21.52;54.53
9261;BME280;4667;42.726;23.252;2023-08-30T04:35:00;94418.22;;;21.36;54.41
9261;BME280;4667;42.726;23.252;2023-08-30T04:37:30;94421.19;;;21.22;53.56
9261;BME280;4667;42.726;23.252;2023-08-30T04:39:57;94406.75;;;20.90;56.23
9261;BME280;4667;42.726;23.252;2023-08-30T04:42:23;94386.59;;;20.71;56.09
9261;BME280;4667;42.726;23.252;2023-08-30T04:44:50;94386.94;;;20.70;56.31
9261;BME280;4667;42.726;23.252;2023-08-30T04:47:19;94417.63;;;20.72;57.21
9261;BME280;4667;42.726;23.252;2023-08-30T04:49:51;94427.75;;;20.34;57.28
9261;BME280;4667;42.726;23.252;2023-08-30T04:52:18;94400.31;;;20.16;56.74
9261;BME280;4667;42.726;23.252;2023-08-30T04:54:44;94432.31;;;20.12;57.40
9261;BME280;4667;42.726;23.252;2023-08-30T04:57:11;94412.66;;;19.66;59.90
9261;BME280;4667;42.726;23.252;2023-08-30T04:59:39;94375.91;;;19.46;60.27
9261;BME280;4667;42.726;23.252;2023-08-30T05:02:06;94352.28;;;19.27;60.84
9261;BME280;4667;42.726;23.252;2023-08-30T05:04:33;94370.16;;;19.06;61.73
9261;BME280;4667;42.726;23.252;2023-08-30T05:07:01;94398.19;;;18.91;63.04
9261;BME280;4667;42.726;23.252;2023-08-30T05:09:28;94296.41;;;18.11;62.86
9261;BME280;4667;42.726;23.252;2023-08-30T05:11:55;94390.38;;;18.60;62.90
9261;BME280;4667;42.726;23.252;2023-08-30T05:14:22;94396.66;;;18.64;63.05
9261;BME280;4667;42.726;23.252;2023-08-30T05:16:49;94395.38;;;18.61;62.82
9261;BME280;4667;42.726;23.252;2023-08-30T05:19:15;94360.25;;;18.42;62.40
9261;BME280;4667;42.726;23.252;2023-08-30T05:21:42;94398.56;;;18.63;62.90
9261;BME280;4667;42.726;23.252;2023-08-30T05:24:10;94399.34;;;18.55;62.45
9261;BME280;4667;42.726;23.252;2023-08-30T05:26:37;94396.19;;;18.70;62.69
9261;BME280;4667;42.726;23.252;2023-08-30T05:29:04;94398.53;;;18.72;62.16
9261;BME280;4667;42.726;23.252;2023-08-30T05:31:31;94393.03;;;18.77;61.94
9261;BME280;4667;42.726;23.252;2023-08-30T05:33:57;94392.84;;;18.91;61.19
9261;BME280;4667;42.726;23.252;2023-08-30T05:36:24;94382.75;;;18.96;61.49
9261;BME280;4667;42.726;23.252;2023-08-30T05:38:51;94402.19;;;19.14;60.94
9261;BME280;4667;42.726;23.252;2023-08-30T05:41:19;94386.16;;;19.14;60.81
9261;BME280;4667;42.726;23.252;2023-08-30T05:43:45;94402.84;;;19.41;59.84
9261;BME280;4667;42.726;23.252;2023-08-30T05:46:12;94396.59;;;19.58;60.09
9261;BME280;4667;42.726;23.252;2023-08-30T05:48:40;94385.13;;;19.57;60.06
9261;BME280;4667;42.726;23.252;2023-08-30T05:51:07;94388.97;;;19.77;59.61
9261;BME280;4667;42.726;23.252;2023-08-30T05:53:34;94382.25;;;19.92;59.60
9261;BME280;4667;42.726;23.252;2023-08-30T05:56:01;94393.16;;;20.08;59.06
9261;BME280;4667;42.726;23.252;2023-08-30T05:58:29;94379.94;;;20.23;58.75
9261;BME280;4667;42.726;23.252;2023-08-30T06:00:56;94367.84;;;20.38;58.38
9261;BME280;4667;42.726;23.252;2023-08-30T06:03:23;94374.31;;;20.37;57.66
9261;BME280;4667;42.726;23.252;2023-08-30T06:05:49;94398.97;;;20.64;57.41
9261;BME280;4667;42.726;23.252;2023-08-30T06:08:16;94392.88;;;20.75;54.70
9261;BME280;4667;42.726;23.252;2023-08-30T06:10:43;94388.84;;;20.82;54.83
9261;BME280;4667;42.726;23.252;2023-08-30T06:13:10;94383.53;;;20.94;55.59
9261;BME280;4667;42.726;23.252;2023-08-30T06:15:38;94381.63;;;21.07;55.91
9261;BME280;4667;42.726;23.252;2023-08-30T06:18:05;94382.97;;;21.13;56.73
9261;BME280;4667;42.726;23.252;2023-08-30T06:20:31;94395.88;;;21.32;56.96
9261;BME280;4667;42.726;23.252;2023-08-30T06:22:58;94394.19;;;21.39;55.58
9261;BME280;4667;42.726;23.252;2023-08-30T06:25:25;94390.38;;;21.52;54.55
9261;BME280;4667;42.726;23.252;2023-08-30T06:27:56;94399.88;;;21.62;53.99
9261;BME280;4667;42.726;23.252;2023-08-30T06:30:24;94404.56;;;21.77;54.58
9261;BME280;4667;42.726;23.252;2023-08-30T06:32:52;94399.16;;;21.90;52.82
9261;BME280;4667;42.726;23.252;2023-08-30T06:35:18;94395.00;;;22.04;52.49
9261;BME280;4667;42.726;23.252;2023-08-30T06:37:45;94387.41;;;22.06;51.55
9261;BME280;4667;42.726;23.252;2023-08-30T06:40:12;94397.22;;;22.15;51.19
9261;BME280;4667;42.726;23.252;2023-08-30T06:42:39;94397.00;;;22.20;51.77
9261;BME280;4667;42.726;23.252;2023-08-30T06:45:06;94397.50;;;22.38;51.65
9261;BME280;4667;42.726;23.252;2023-08-30T06:47:33;94402.13;;;22.53;51.03
9261;BME280;4667;42.726;23.252;2023-08-30T06:50:01;94403.53;;;22.35;51.23
9261;BME280;4667;42.726;23.252;2023-08-30T06:52:29;94406.38;;;22.54;50.90
9261;BME280;4667;42.726;23.252;2023-08-30T06:54:55;94402.19;;;22.69;51.24
9261;BME280;4667;42.726;23.252;2023-08-30T06:57:22;94405.50;;;22.78;51.46
9261;BME280;4667;42.726;23.252;2023-08-30T06:59:49;94402.97;;;22.85;51.06
9261;BME280;4667;42.726;23.252;2023-08-30T07:02:15;94399.06;;;22.82;49.37
9261;BME280;4667;42.726;23.252;2023-08-30T07:04:42;94401.72;;;23.11;49.59
9261;BME280;4667;42.726;23.252;2023-08-30T07:07:11;94389.16;;;23.15;49.88
9261;BME280;4667;42.726;23.252;2023-08-30T07:09:39;94390.88;;;23.39;48.76
9261;BME280;4667;42.726;23.252;2023-08-30T07:12:07;94403.53;;;23.38;48.73
9261;BME280;4667;42.726;23.252;2023-08-30T07:14:34;94405.41;;;23.34;47.96
9261;BME280;4667;42.726;23.252;2023-08-30T07:17:00;94408.94;;;23.38;47.26
9261;BME280;4667;42.726;23.252;2023-08-30T07:19:30;94394.16;;;23.48;47.42
9261;BME280;4667;42.726;23.252;2023-08-30T07:21:57;94396.53;;;23.49;48.23
9261;BME280;4667;42.726;23.252;2023-08-30T07:24:25;94396.88;;;23.32;48.37
9261;BME280;4667;42.726;23.252;2023-08-30T07:26:51;94400.50;;;23.55;47.69
9261;BME280;4667;42.726;23.252;2023-08-30T07:29:18;94311.69;;;23.04;46.75
9261;BME280;4667;42.726;23.252;2023-08-30T07:31:45;94405.09;;;23.86;47.45
9261;BME280;4667;42.726;23.252;2023-08-30T07:34:12;94400.06;;;24.04;46.19
9261;BME280;4667;42.726;23.252;2023-08-30T07:36:39;94404.13;;;24.14;45.79
9261;BME280;4667;42.726;23.252;2023-08-30T07:39:06;94404.91;;;24.34;45.60
9261;BME280;4667;42.726;23.252;2023-08-30T07:41:37;94246.38;;;23.58;45.19
9261;BME280;4667;42.726;23.252;2023-08-30T07:44:04;94391.50;;;24.76;44.77
9261;BME280;4667;42.726;23.252;2023-08-30T07:46:31;94378.31;;;24.71;44.50
9261;BME280;4667;42.726;23.252;2023-08-30T07:48:58;94395.16;;;25.07;44.43
9261;BME280;4667;42.726;23.252;2023-08-30T07:51:24;94389.22;;;25.21;44.06
9261;BME280;4667;42.726;23.252;2023-08-30T07:53:51;94390.94;;;25.32;44.25
9261;BME280;4667;42.726;23.252;2023-08-30T07:56:18;94394.13;;;25.38;43.98
9261;BME280;4667;42.726;23.252;2023-08-30T07:58:46;94390.97;;;25.59;44.10
9261;BME280;4667;42.726;23.252;2023-08-30T08:01:13;94396.97;;;25.72;43.51
9261;BME280;4667;42.726;23.252;2023-08-30T08:03:39;94401.31;;;25.76;43.01
9261;BME280;4667;42.726;23.252;2023-08-30T08:06:07;94403.84;;;25.69;42.99
9261;BME280;4667;42.726;23.252;2023-08-30T08:08:33;94397.97;;;25.63;43.00
9261;BME280;4667;42.726;23.252;2023-08-30T08:11:00;94400.84;;;25.74;43.14
9261;BME280;4667;42.726;23.252;2023-08-30T08:13:27;94397.13;;;26.09;41.60
9261;BME280;4667;42.726;23.252;2023-08-30T08:15:57;94394.03;;;26.70;39.70
9261;BME280;4667;42.726;23.252;2023-08-30T08:18:23;94389.31;;;27.01;37.80
9261;BME280;4667;42.726;23.252;2023-08-30T08:20:50;94404.53;;;27.61;38.33
9261;BME280;4667;42.726;23.252;2023-08-30T08:23:17;94413.09;;;28.21;37.33
9261;BME280;4667;42.726;23.252;2023-08-30T08:25:44;94396.59;;;28.55;36.59
9261;BME280;4667;42.726;23.252;2023-08-30T08:28:10;94411.53;;;29.08;35.83
9261;BME280;4667;42.726;23.252;2023-08-30T08:30:37;94410.00;;;29.39;35.72
9261;BME280;4667;42.726;23.252;2023-08-30T08:33:05;94406.91;;;29.80;33.35
9261;BME280;4667;42.726;23.252;2023-08-30T08:35:32;94380.81;;;30.21;32.94
9261;BME280;4667;42.726;23.252;2023-08-30T08:37:59;94411.75;;;30.67;31.72
9261;BME280;4667;42.726;23.252;2023-08-30T08:40:26;94413.59;;;30.91;29.28
9261;BME280;4667;42.726;23.252;2023-08-30T08:42:53;94407.44;;;31.43;28.97
9261;BME280;4667;42.726;23.252;2023-08-30T08:45:21;94414.16;;;31.83;29.21
9261;BME280;4667;42.726;23.252;2023-08-30T08:47:48;94418.66;;;32.42;28.80
9261;BME280;4667;42.726;23.252;2023-08-30T08:50:17;94377.97;;;31.79;28.69
9261;BME280;4667;42.726;23.252;2023-08-30T08:52:44;94362.94;;;32.05;28.20
9261;BME280;4667;42.726;23.252;2023-08-30T08:55:11;94388.53;;;32.83;27.27
9261;BME280;4667;42.726;23.252;2023-08-30T08:57:39;94395.56;;;33.11;27.03
9261;BME280;4667;42.726;23.252;2023-08-30T09:00:07;94403.13;;;33.00;27.04
9261;BME280;4667;42.726;23.252;2023-08-30T09:02:34;94395.78;;;32.97;27.25
9261;BME280;4667;42.726;23.252;2023-08-30T09:05:00;94393.94;;;33.44;26.21
9261;BME280;4667;42.726;23.252;2023-08-30T09:07:32;94385.34;;;33.69;26.31
9261;BME280;4667;42.726;23.252;2023-08-30T09:09:59;94382.13;;;33.24;26.12
9261;BME280;4667;42.726;23.252;2023-08-30T09:12:26;94382.00;;;33.58;26.74
9261;BME280;4667;42.726;23.252;2023-08-30T09:14:54;94383.72;;;33.48;27.06
9261;BME280;4667;42.726;23.252;2023-08-30T09:17:21;94394.59;;;33.75;26.25
9261;BME280;4667;42.726;23.252;2023-08-30T09:19:48;94388.00;;;33.49;26.50
9261;BME280;4667;42.726;23.252;2023-08-30T09:22:15;94363.22;;;33.60;26.36
9261;BME280;4667;42.726;23.252;2023-08-30T09:24:43;94360.06;;;33.85;26.11
9261;BME280;4667;42.726;23.252;2023-08-30T09:27:10;94371.88;;;34.45;25.41
9261;BME280;4667;42.726;23.252;2023-08-30T09:29:37;94365.63;;;33.78;25.59
9261;BME280;4667;42.726;23.252;2023-08-30T09:32:04;94393.09;;;34.18;25.94
9261;BME280;4667;42.726;23.252;2023-08-30T09:34:31;94285.81;;;33.16;25.39
9261;BME280;4667;42.726;23.252;2023-08-30T09:36:58;94374.38;;;34.36;25.01
9261;BME280;4667;42.726;23.252;2023-08-30T09:39:27;94375.28;;;34.69;24.66
9261;BME280;4667;42.726;23.252;2023-08-30T09:41:55;94380.97;;;34.78;24.84
9261;BME280;4667;42.726;23.252;2023-08-30T09:44:22;94328.78;;;34.09;25.56
9261;BME280;4667;42.726;23.252;2023-08-30T09:46:50;94314.41;;;34.45;25.69
9261;BME280;4667;42.726;23.252;2023-08-30T09:49:20;94372.06;;;35.10;24.71
9261;BME280;4667;42.726;23.252;2023-08-30T09:51:48;94368.81;;;35.15;24.31
9261;BME280;4667;42.726;23.252;2023-08-30T09:54:16;94373.38;;;35.22;24.42
9261;BME280;4667;42.726;23.252;2023-08-30T09:56:44;94364.75;;;35.56;24.43
9261;BME280;4667;42.726;23.252;2023-08-30T09:59:13;94361.03;;;35.30;25.06
9261;BME280;4667;42.726;23.252;2023-08-30T10:01:41;94350.31;;;35.03;24.70
9261;BME280;4667;42.726;23.252;2023-08-30T10:04:09;94350.38;;;34.63;25.29
9261;BME280;4667;42.726;23.252;2023-08-30T10:06:37;94358.53;;;35.03;25.37
9261;BME280;4667;42.726;23.252;2023-08-30T10:09:05;94355.28;;;35.08;25.41
9261;BME280;4667;42.726;23.252;2023-08-30T10:11:34;94355.19;;;35.48;24.68
9261;BME280;4667;42.726;23.252;2023-08-30T10:14:02;94325.41;;;34.98;23.76
9261;BME280;4667;42.726;23.252;2023-08-30T10:16:37;94341.84;;;35.30;23.92
9261;BME280;4667;42.726;23.252;2023-08-30T10:19:11;94346.56;;;35.79;23.76
9261;BME280;4667;42.726;23.252;2023-08-30T10:21:40;94340.16;;;34.84;23.60
9261;BME280;4667;42.726;23.252;2023-08-30T10:24:10;94348.34;;;33.61;25.70
9261;BME280;4667;42.726;23.252;2023-08-30T10:26:38;94344.38;;;33.15;26.47
9261;BME280;4667;42.726;23.252;2023-08-30T10:29:08;94355.34;;;32.84;27.11
9261;BME280;4667;42.726;23.252;2023-08-30T10:31:39;94344.34;;;32.27;27.73
9261;BME280;4667;42.726;23.252;2023-08-30T10:34:13;94321.22;;;31.63;28.44
9261;BME280;4667;42.726;23.252;2023-08-30T10:36:42;94338.00;;;32.03;28.92
9261;BME280;4667;42.726;23.252;2023-08-30T10:39:11;94341.00;;;31.74;28.23
9261;BME280;4667;42.726;23.252;2023-08-30T10:41:38;94338.59;;;32.21;28.58
9261;BME280;4667;42.726;23.252;2023-08-30T10:44:05;94343.00;;;31.70;27.44
9261;BME280;4667;42.726;23.252;2023-08-30T10:46:33;94335.22;;;31.69;27.45
9261;BME280;4667;42.726;23.252;2023-08-30T10:49:11;94334.69;;;31.40;28.13
9261;BME280;4667;42.726;23.252;2023-08-30T10:51:40;94312.78;;;31.95;28.17
9261;BME280;4667;42.726;23.252;2023-08-30T10:54:11;94287.13;;;32.54;25.89
9261;BME280;4667;42.726;23.252;2023-08-30T10:56:46;94316.63;;;33.87;24.93
9261;BME280;4667;42.726;23.252;2023-08-30T10:59:17;94317.50;;;34.44;24.13
9261;BME280;4667;42.726;23.252;2023-08-30T11:01:45;94313.44;;;35.08;22.73
9261;BME280;4667;42.726;23.252;2023-08-30T11:04:15;94250.75;;;35.72;22.67
9261;BME280;4667;42.726;23.252;2023-08-30T11:06:43;94321.63;;;36.60;21.59
9261;BME280;4667;42.726;23.252;2023-08-30T11:09:12;94249.75;;;35.95;19.67
9261;BME280;4667;42.726;23.252;2023-08-30T11:11:39;94324.44;;;36.99;18.74
9261;BME280;4667;42.726;23.252;2023-08-30T11:14:07;94249.00;;;36.74;18.60
9261;BME280;4667;42.726;23.252;2023-08-30T11:16:34;94293.59;;;37.55;18.75
9261;BME280;4667;42.726;23.252;2023-08-30T11:19:01;94317.13;;;36.79;17.71
9261;BME280;4667;42.726;23.252;2023-08-30T11:21:31;94310.47;;;36.38;18.41
9261;BME280;4667;42.726;23.252;2023-08-30T11:23:58;94262.88;;;36.70;16.22
9261;BME280;4667;42.726;23.252;2023-08-30T11:26:25;94314.94;;;37.25;16.43
9261;BME280;4667;42.726;23.252;2023-08-30T11:28:52;94297.06;;;36.95;16.57
9261;BME280;4667;42.726;23.252;2023-08-30T11:31:19;94128.31;;;35.78;16.60
9261;BME280;4667;42.726;23.252;2023-08-30T11:33:51;94289.13;;;37.10;15.92
9261;BME280;4667;42.726;23.252;2023-08-30T11:36:20;94294.72;;;37.19;16.29
9261;BME280;4667;42.726;23.252;2023-08-30T11:38:49;94293.53;;;36.82;15.20
9261;BME280;4667;42.726;23.252;2023-08-30T11:41:16;94284.28;;;36.88;15.40
9261;BME280;4667;42.726;23.252;2023-08-30T11:43:43;94282.41;;;36.73;15.80
9261;BME280;4667;42.726;23.252;2023-08-30T11:46:10;94276.72;;;37.65;15.77
9261;BME280;4667;42.726;23.252;2023-08-30T11:48:38;94270.06;;;37.88;14.96
9261;BME280;4667;42.726;23.252;2023-08-30T11:51:05;94272.72;;;37.44;14.23
9261;BME280;4667;42.726;23.252;2023-08-30T11:53:32;94246.25;;;36.87;15.70
9261;BME280;4667;42.726;23.252;2023-08-30T11:56:01;94264.94;;;37.17;15.68
9261;BME280;4667;42.726;23.252;2023-08-30T11:58:31;94269.97;;;37.44;16.25
9261;BME280;4667;42.726;23.252;2023-08-30T12:00:59;94258.19;;;37.31;15.32
9261;BME280;4667;42.726;23.252;2023-08-30T12:03:26;94257.72;;;37.58;15.64
9261;BME280;4667;42.726;23.252;2023-08-30T12:05:54;94254.78;;;38.62;15.45
9261;BME280;4667;42.726;23.252;2023-08-30T12:08:21;94255.84;;;38.12;14.66
9261;BME280;4667;42.726;23.252;2023-08-30T12:10:49;94266.34;;;37.47;15.48
9261;BME280;4667;42.726;23.252;2023-08-30T12:13:21;94237.75;;;37.19;15.88
9261;BME280;4667;42.726;23.252;2023-08-30T12:15:48;94248.13;;;37.03;16.61
9261;BME280;4667;42.726;23.252;2023-08-30T12:18:15;94254.72;;;37.18;14.11
9261;BME280;4667;42.726;23.252;2023-08-30T12:20:51;94245.16;;;36.59;15.40
9261;BME280;4667;42.726;23.252;2023-08-30T12:23:22;94245.97;;;37.45;14.79
9261;BME280;4667;42.726;23.252;2023-08-30T12:26:02;94217.50;;;37.26;14.62
9261;BME280;4667;42.726;23.252;2023-08-30T12:28:33;94186.84;;;37.28;14.74
9261;BME280;4667;42.726;23.252;2023-08-30T12:31:00;94252.41;;;36.78;14.83
9261;BME280;4667;42.726;23.252;2023-08-30T12:33:29;94228.69;;;36.72;14.97
9261;BME280;4667;42.726;23.252;2023-08-30T12:35:57;94246.16;;;36.78;15.47
9261;BME280;4667;42.726;23.252;2023-08-30T12:38:24;94230.25;;;36.05;14.82
9261;BME280;4667;42.726;23.252;2023-08-30T12:40:52;94239.19;;;36.35;15.01
9261;BME280;4667;42.726;23.252;2023-08-30T12:43:20;94112.13;;;35.96;14.56
9261;BME280;4667;42.726;23.252;2023-08-30T12:45:49;94076.91;;;36.20;13.43
9261;BME280;4667;42.726;23.252;2023-08-30T12:48:17;94204.06;;;36.68;13.74
9261;BME280;4667;42.726;23.252;2023-08-30T12:50:46;94193.28;;;36.35;14.32
9261;BME280;4667;42.726;23.252;2023-08-30T12:53:14;94185.50;;;36.59;14.71
9261;BME280;4667;42.726;23.252;2023-08-30T12:55:42;94129.25;;;36.13;13.96
9261;BME280;4667;42.726;23.252;2023-08-30T12:58:09;94230.81;;;36.13;14.02
9261;BME280;4667;42.726;23.252;2023-08-30T13:00:37;94184.81;;;36.04;14.06
9261;BME280;4667;42.726;23.252;2023-08-30T13:03:05;94136.84;;;35.67;14.49
9261;BME280;4667;42.726;23.252;2023-08-30T13:05:33;94142.44;;;36.31;13.82
9261;BME280;4667;42.726;23.252;2023-08-30T13:08:00;94209.72;;;37.37;14.17
9261;BME280;4667;42.726;23.252;2023-08-30T13:10:27;94080.06;;;36.57;13.04
9261;BME280;4667;42.726;23.252;2023-08-30T13:12:54;94211.38;;;37.22;13.02